Fisher, West Virginia
Current Conditions -  °F | °C
As of 5:55 AM on Sunday 23 Nov 2014 (Local Time) from KW99 Reporting Station
Clear Clear  
Wind Chill: 35°   Ceiling: Unl
Heat Index: 35°   Visibility: 10mi
Dew Point: 25°   Wind: 0mph
Humidity: 66%   Direction: NA
Pressure: 30.16"   Gusts: NA
Location:  39.05°N, 79°W
Report Text: KW99 231055Z AUTO 00000KT 10SM CLR 02/M04 A3016 RMK AO2 T00171041
Loading
Personal Weather Stations






























Interactive Weather Map New forecast layout! Learn more

10-Day Weather Forecast

Advertisements
Track Severe Weather on mobile